Time;durP1;ratioP1;P1;durP2;ratioP2;P2;SDS_P1;SDS_P2;PMS_P1;PMS_P2;Temp;Humidity;BMP_temperature;BMP_pressure;BME280_temperature;BME280_humidity;BME280_pressure;Samples;Min_cycle;Max_cycle;Signal;HPM_P1;HPM_P2
2022/09/05 00:00:08;;;;;;;;;;;;;;;;;;5076516;28;20047;-64
2022/09/05 00:02:33;;;;;;;;;;;;;;;;;;5092830;28;20280;-64
2022/09/05 00:04:59;;;;;;;;;;;;;;;;;;5093063;28;19916;-62
2022/09/05 00:07:24;;;;;;;;;;;;;;;;;;5083726;28;19912;-64
2022/09/05 00:09:49;;;;;;;;;;;;;;;;;;5092496;28;20328;-63
2022/09/05 00:12:14;;;;;;;;;;;;;;;;;;5090052;28;19918;-64
2022/09/05 00:14:40;;;;;;;;;;;;;;;;;;5077827;28;19985;-64
2022/09/05 00:17:05;;;;;;;;;;;;;;;;;;5092361;28;19912;-64
2022/09/05 00:19:30;;;;;;;;;;;;;;;;;;5096178;28;19912;-65
2022/09/05 00:21:55;;;;;;;;;;;;;;;;;;5089284;28;20007;-65
2022/09/05 00:24:20;;;;;;;;;;;;;;;;;;5102525;28;19912;-65
2022/09/05 00:26:46;;;;;;;;;;;;;;;;;;5084846;28;19920;-65
2022/09/05 00:29:11;;;;;;;;;;;;;;;;;;5065049;28;19929;-64
2022/09/05 00:31:36;;;;;;;;;;;;;;;;;;5072719;28;19916;-65
2022/09/05 00:34:01;;;;;;;;;;;;;;;;;;5092521;28;19908;-65
2022/09/05 00:36:26;;;;;;;;;;;;;;;;;;5074427;28;19913;-65
2022/09/05 00:38:52;;;;;;;;;;;;;;;;;;5070578;28;19919;-65
2022/09/05 00:41:17;;;;;;;;;;;;;;;;;;5083501;28;20281;-65
2022/09/05 00:43:42;;;;;;;;;;;;;;;;;;5091902;28;20276;-65
2022/09/05 00:46:11;;;;;;;;;;;;;;;;;;5098623;28;19966;-64
2022/09/05 00:48:36;;;;;;;;;;;;;;;;;;5087000;28;19971;-65
2022/09/05 00:51:01;;;;;;;;;;;;;;;;;;5092447;28;20378;-64
2022/09/05 00:53:27;;;;;;;;;;;;;;;;;;5087751;28;19912;-64
2022/09/05 00:55:52;;;;;;;;;;;;;;;;;;5092471;28;19908;-64
2022/09/05 00:58:17;;;;;;;;;;;;;;;;;;5073778;28;19912;-64
2022/09/05 01:00:42;;;;;;;;;;;;;;;;;;5088185;28;19957;-64
2022/09/05 01:03:08;;;;;;;;;;;;;;;;;;5086931;28;19922;-64
2022/09/05 01:05:33;;;;;;;;;;;;;;;;;;5092684;28;20391;-64
2022/09/05 01:07:58;;;;;;;;;;;;;;;;;;5090786;28;19912;-63
2022/09/05 01:10:24;;;;;;;;;;;;;;;;;;5082193;28;19922;-65
2022/09/05 01:12:49;;;;;;;;;;;;;;;;;;5076447;28;20011;-63
2022/09/05 01:15:14;;;;;;;;;;;;;;;;;;5092156;28;19952;-65
2022/09/05 01:17:39;;;;;;;;;;;;;;;;;;5075210;28;19908;-64
2022/09/05 01:20:07;;;;;;;;;;;;;;;;;;5093103;28;19917;-65
2022/09/05 01:22:32;;;;;;;;;;;;;;;;;;5081253;28;20376;-64
2022/09/05 01:24:57;;;;;;;;;;;;;;;;;;5091024;28;19918;-65
2022/09/05 01:27:22;;;;;;;;;;;;;;;;;;5092958;28;20093;-65
2022/09/05 01:29:48;;;;;;;;;;;;;;;;;;5075137;28;19912;-64
2022/09/05 01:32:14;;;;;;;;;;;;;;;;;;5072278;28;20383;-64
2022/09/05 01:34:40;;;;;;;;;;;;;;;;;;5076088;28;19962;-64
2022/09/05 01:37:05;;;;;;;;;;;;;;;;;;5074498;28;19913;-64
2022/09/05 01:39:30;;;;;;;;;;;;;;;;;;5074611;28;19934;-64
2022/09/05 01:41:55;;;;;;;;;;;;;;;;;;5080860;28;19963;-65
2022/09/05 01:44:21;;;;;;;;;;;;;;;;;;5095293;28;19916;-65
2022/09/05 01:46:46;;;;;;;;;;;;;;;;;;5097230;28;20368;-65
2022/09/05 01:49:11;;;;;;;;;;;;;;;;;;5077448;28;19927;-65
2022/09/05 01:51:36;;;;;;;;;;;;;;;;;;5073608;28;19917;-65
2022/09/05 01:54:01;;;;;;;;;;;;;;;;;;5073808;28;19962;-65
2022/09/05 01:56:27;;;;;;;;;;;;;;;;;;5083927;28;19919;-65
2022/09/05 01:58:52;;;;;;;;;;;;;;;;;;5093626;28;19911;-64
2022/09/05 02:01:17;;;;;;;;;;;;;;;;;;5080688;28;19973;-65
2022/09/05 02:03:42;;;;;;;;;;;;;;;;;;5086135;28;19924;-64
2022/09/05 02:06:07;;;;;;;;;;;;;;;;;;5090075;28;19916;-65
2022/09/05 02:08:32;;;;;;;;;;;;;;;;;;5075057;28;20292;-65
2022/09/05 02:10:57;;;;;;;;;;;;;;;;;;5075430;28;20280;-65
2022/09/05 02:13:22;;;;;;;;;;;;;;;;;;5083046;28;20428;-64
2022/09/05 02:15:48;;;;;;;;;;;;;;;;;;5083404;28;19920;-65
2022/09/05 02:18:13;;;;;;;;;;;;;;;;;;5094899;28;19919;-65
2022/09/05 02:20:38;;;;;;;;;;;;;;;;;;5077181;28;19908;-65
2022/09/05 02:23:03;;;;;;;;;;;;;;;;;;5086746;28;19924;-65
2022/09/05 02:25:28;;;;;;;;;;;;;;;;;;5084334;28;19912;-65
2022/09/05 02:27:53;;;;;;;;;;;;;;;;;;5093837;28;19908;-65
2022/09/05 02:30:19;;;;;;;;;;;;;;;;;;5087157;28;19909;-64
2022/09/05 02:32:44;;;;;;;;;;;;;;;;;;5086733;28;19924;-64
2022/09/05 02:35:09;;;;;;;;;;;;;;;;;;5083184;28;20388;-64
2022/09/05 02:37:35;;;;;;;;;;;;;;;;;;5071542;28;19961;-64
2022/09/05 02:40:00;;;;;;;;;;;;;;;;;;5090498;28;19908;-65
2022/09/05 02:42:25;;;;;;;;;;;;;;;;;;5058612;28;20292;-65
2022/09/05 02:44:50;;;;;;;;;;;;;;;;;;5083304;28;19916;-64
2022/09/05 02:47:17;;;;;;;;;;;;;;;;;;5090162;28;20309;-64
2022/09/05 02:49:42;;;;;;;;;;;;;;;;;;5090702;28;20010;-64
2022/09/05 02:52:07;;;;;;;;;;;;;;;;;;5066523;28;20386;-64
2022/09/05 02:54:32;;;;;;;;;;;;;;;;;;5066372;28;19916;-64
2022/09/05 02:56:58;;;;;;;;;;;;;;;;;;5072842;28;19919;-64
2022/09/05 02:59:23;;;;;;;;;;;;;;;;;;5081404;28;19912;-64
2022/09/05 03:01:48;;;;;;;;;;;;;;;;;;5080244;28;20359;-64
2022/09/05 03:04:13;;;;;;;;;;;;;;;;;;5073562;28;19962;-64
2022/09/05 03:06:38;;;;;;;;;;;;;;;;;;5082389;28;20322;-64
2022/09/05 03:09:03;;;;;;;;;;;;;;;;;;5089288;28;19912;-64
2022/09/05 03:11:28;;;;;;;;;;;;;;;;;;5059636;28;20334;-64
2022/09/05 03:13:54;;;;;;;;;;;;;;;;;;5076843;28;19912;-64
2022/09/05 03:16:19;;;;;;;;;;;;;;;;;;5073995;28;19999;-64
2022/09/05 03:18:44;;;;;;;;;;;;;;;;;;5086626;28;19916;-65
2022/09/05 03:21:11;;;;;;;;;;;;;;;;;;5092367;28;19919;-64
2022/09/05 03:23:36;;;;;;;;;;;;;;;;;;5076287;28;19994;-64
2022/09/05 03:26:01;;;;;;;;;;;;;;;;;;5077947;28;20408;-64
2022/09/05 03:28:26;;;;;;;;;;;;;;;;;;5068108;28;20350;-64
2022/09/05 03:30:51;;;;;;;;;;;;;;;;;;5091063;28;20223;-64
2022/09/05 03:33:16;;;;;;;;;;;;;;;;;;5082329;28;19989;-64
2022/09/05 03:35:42;;;;;;;;;;;;;;;;;;5072942;28;20280;-63
2022/09/05 03:38:07;;;;;;;;;;;;;;;;;;5082497;28;19912;-65
2022/09/05 03:40:35;;;;;;;;;;;;;;;;;;5076299;28;19920;-64
2022/09/05 03:43:00;;;;;;;;;;;;;;;;;;5077692;28;20375;-64
2022/09/05 03:45:25;;;;;;;;;;;;;;;;;;5083436;28;20003;-64
2022/09/05 03:47:50;;;;;;;;;;;;;;;;;;5090343;28;19927;-64
2022/09/05 03:50:16;;;;;;;;;;;;;;;;;;5088415;28;19916;-64
2022/09/05 03:52:42;;;;;;;;;;;;;;;;;;5082376;28;20439;-65
2022/09/05 03:55:07;;;;;;;;;;;;;;;;;;5084325;28;20003;-64
2022/09/05 03:57:34;;;;;;;;;;;;;;;;;;5076395;28;20475;-64
2022/09/05 04:00:01;;;;;;;;;;;;;;;;;;5080191;28;19920;-64
2022/09/05 04:02:26;;;;;;;;;;;;;;;;;;5086658;28;19912;-64
2022/09/05 04:04:52;;;;;;;;;;;;;;;;;;5078786;28;19954;-63
2022/09/05 04:07:17;;;;;;;;;;;;;;;;;;5076551;28;19912;-64
2022/09/05 04:09:44;;;;;;;;;;;;;;;;;;5081031;28;19916;-63
2022/09/05 04:12:09;;;;;;;;;;;;;;;;;;5090321;28;20024;-64
2022/09/05 04:14:35;;;;;;;;;;;;;;;;;;5086699;28;19945;-64
2022/09/05 04:17:00;;;;;;;;;;;;;;;;;;5078182;28;19920;-65
2022/09/05 04:19:25;;;;;;;;;;;;;;;;;;5080198;28;19966;-64
2022/09/05 04:21:50;;;;;;;;;;;;;;;;;;5060222;28;19916;-64
2022/09/05 04:24:15;;;;;;;;;;;;;;;;;;5081327;28;19923;-64
2022/09/05 04:26:40;;;;;;;;;;;;;;;;;;5071353;28;20254;-64
2022/09/05 04:29:05;;;;;;;;;;;;;;;;;;5073238;28;19913;-65
2022/09/05 04:31:31;;;;;;;;;;;;;;;;;;5076211;28;19923;-64
2022/09/05 04:33:56;;;;;;;;;;;;;;;;;;5057976;28;20221;-65
2022/09/05 04:36:21;;;;;;;;;;;;;;;;;;5060607;28;19920;-65
2022/09/05 04:38:46;;;;;;;;;;;;;;;;;;5079190;28;20003;-66
2022/09/05 04:41:11;;;;;;;;;;;;;;;;;;5089054;28;20313;-66
2022/09/05 04:43:36;;;;;;;;;;;;;;;;;;5067763;28;19916;-65
2022/09/05 04:46:01;;;;;;;;;;;;;;;;;;5079356;28;19923;-64
2022/09/05 04:48:27;;;;;;;;;;;;;;;;;;5088002;28;20282;-65
2022/09/05 04:50:52;;;;;;;;;;;;;;;;;;5057196;28;20011;-65
2022/09/05 04:53:17;;;;;;;;;;;;;;;;;;5070618;28;19917;-66
2022/09/05 04:55:42;;;;;;;;;;;;;;;;;;5057353;28;20379;-65
2022/09/05 04:58:09;;;;;;;;;;;;;;;;;;5058939;28;19923;-63
2022/09/05 05:00:34;;;;;;;;;;;;;;;;;;5062144;28;19957;-65
2022/09/05 05:02:59;;;;;;;;;;;;;;;;;;5068379;28;20246;-64
2022/09/05 05:05:24;;;;;;;;;;;;;;;;;;5087759;28;19942;-65
2022/09/05 05:07:49;;;;;;;;;;;;;;;;;;5084984;28;19947;-64
2022/09/05 05:10:14;;;;;;;;;;;;;;;;;;5076407;28;19909;-65
2022/09/05 05:12:39;;;;;;;;;;;;;;;;;;5075717;28;19916;-65
2022/09/05 05:15:05;;;;;;;;;;;;;;;;;;5074821;28;20621;-64
2022/09/05 05:17:30;;;;;;;;;;;;;;;;;;5087887;28;19916;-64
2022/09/05 05:19:55;;;;;;;;;;;;;;;;;;5080381;28;19916;-65
2022/09/05 05:22:20;;;;;;;;;;;;;;;;;;5072667;28;19969;-65
2022/09/05 05:24:45;;;;;;;;;;;;;;;;;;5083386;28;19916;-65
2022/09/05 05:27:11;;;;;;;;;;;;;;;;;;5071979;28;19916;-65
2022/09/05 05:29:36;;;;;;;;;;;;;;;;;;5076800;28;19916;-65
2022/09/05 05:32:02;;;;;;;;;;;;;;;;;;5076499;28;20443;-65
2022/09/05 05:34:27;;;;;;;;;;;;;;;;;;5079105;28;19913;-65
2022/09/05 05:36:52;;;;;;;;;;;;;;;;;;5086742;28;19934;-64
2022/09/05 05:39:17;;;;;;;;;;;;;;;;;;5061103;28;19920;-64
2022/09/05 05:41:42;;;;;;;;;;;;;;;;;;5083420;28;19951;-64
2022/09/05 05:44:07;;;;;;;;;;;;;;;;;;5071685;28;20284;-64
2022/09/05 05:46:32;;;;;;;;;;;;;;;;;;5065809;28;19992;-65
2022/09/05 05:48:58;;;;;;;;;;;;;;;;;;5087445;28;19912;-65
2022/09/05 05:51:23;;;;;;;;;;;;;;;;;;5074455;28;20426;-65
2022/09/05 05:53:48;;;;;;;;;;;;;;;;;;5069573;28;19928;-65
2022/09/05 05:56:13;;;;;;;;;;;;;;;;;;5070468;28;19916;-65
2022/09/05 05:58:38;;;;;;;;;;;;;;;;;;5054790;28;19913;-66
2022/09/05 06:01:04;;;;;;;;;;;;;;;;;;5081114;28;19919;-65
2022/09/05 06:03:29;;;;;;;;;;;;;;;;;;5085829;28;19917;-64
2022/09/05 06:05:54;;;;;;;;;;;;;;;;;;5081349;28;19912;-64
2022/09/05 06:08:19;;;;;;;;;;;;;;;;;;5075577;28;19962;-66
2022/09/05 06:10:45;;;;;;;;;;;;;;;;;;5080726;28;19912;-64
2022/09/05 06:13:10;;;;;;;;;;;;;;;;;;5081331;28;19912;-64
2022/09/05 06:15:35;;;;;;;;;;;;;;;;;;5092780;28;20007;-64
2022/09/05 06:18:00;;;;;;;;;;;;;;;;;;5083589;28;20071;-64
2022/09/05 06:20:25;;;;;;;;;;;;;;;;;;5094862;28;19912;-65
2022/09/05 06:22:51;;;;;;;;;;;;;;;;;;5071974;28;19923;-65
2022/09/05 06:25:16;;;;;;;;;;;;;;;;;;5095801;28;19915;-65
2022/09/05 06:27:41;;;;;;;;;;;;;;;;;;5083826;28;20276;-64
2022/09/05 06:30:07;;;;;;;;;;;;;;;;;;5074744;28;20348;-63
2022/09/05 06:32:32;;;;;;;;;;;;;;;;;;5087948;28;19964;-64
2022/09/05 06:34:57;;;;;;;;;;;;;;;;;;5066819;28;19962;-64
2022/09/05 06:37:24;;;;;;;;;;;;;;;;;;5074628;28;19921;-64
2022/09/05 06:39:49;;;;;;;;;;;;;;;;;;5056208;28;19917;-65
2022/09/05 06:42:14;;;;;;;;;;;;;;;;;;5074191;28;19912;-65
2022/09/05 06:44:39;;;;;;;;;;;;;;;;;;5077688;28;19923;-65
2022/09/05 06:47:05;;;;;;;;;;;;;;;;;;5081442;28;19927;-65
2022/09/05 06:49:31;;;;;;;;;;;;;;;;;;5082714;28;20009;-65
2022/09/05 06:51:56;;;;;;;;;;;;;;;;;;5067162;28;20035;-65
2022/09/05 06:54:21;;;;;;;;;;;;;;;;;;5064312;28;19912;-65
2022/09/05 06:56:46;;;;;;;;;;;;;;;;;;5074326;28;19935;-65
2022/09/05 06:59:12;;;;;;;;;;;;;;;;;;5072658;28;20400;-65
2022/09/05 07:01:37;;;;;;;;;;;;;;;;;;5078491;28;19912;-65
2022/09/05 07:04:02;;;;;;;;;;;;;;;;;;5076436;28;19939;-65
2022/09/05 07:06:27;;;;;;;;;;;;;;;;;;5073073;28;19913;-65
2022/09/05 07:08:52;;;;;;;;;;;;;;;;;;5055051;28;19999;-65
2022/09/05 07:11:18;;;;;;;;;;;;;;;;;;5073754;28;19955;-65
2022/09/05 07:13:44;;;;;;;;;;;;;;;;;;5059157;28;19919;-65
2022/09/05 07:16:09;;;;;;;;;;;;;;;;;;5072648;28;19920;-65
2022/09/05 07:18:35;;;;;;;;;;;;;;;;;;5093747;28;20256;-65
2022/09/05 07:21:00;;;;;;;;;;;;;;;;;;5093136;28;20560;-65
2022/09/05 07:23:25;;;;;;;;;;;;;;;;;;5077460;28;19917;-66
2022/09/05 07:25:50;;;;;;;;;;;;;;;;;;5081118;28;19916;-64
2022/09/05 07:28:18;;;;;;;;;;;;;;;;;;5087466;28;20450;-65
2022/09/05 07:30:43;;;;;;;;;;;;;;;;;;5071415;28;20311;-65
2022/09/05 07:33:08;;;;;;;;;;;;;;;;;;5070101;28;19913;-65
2022/09/05 07:35:33;;;;;;;;;;;;;;;;;;5093439;28;19908;-65
2022/09/05 07:37:58;;;;;;;;;;;;;;;;;;5063681;28;19918;-65
2022/09/05 07:40:24;;;;;;;;;;;;;;;;;;5054959;28;19911;-65
2022/09/05 07:42:49;;;;;;;;;;;;;;;;;;5073602;28;19912;-65
2022/09/05 07:45:14;;;;;;;;;;;;;;;;;;5090614;28;20395;-65
2022/09/05 07:47:39;;;;;;;;;;;;;;;;;;5071211;28;19913;-65
2022/09/05 07:50:04;;;;;;;;;;;;;;;;;;5065368;28;19958;-65
2022/09/05 07:52:29;;;;;;;;;;;;;;;;;;5072726;28;19912;-65
2022/09/05 07:54:58;;;;;;;;;;;;;;;;;;5092868;28;19976;-65
2022/09/05 07:57:23;;;;;;;;;;;;;;;;;;5061929;28;19919;-65
2022/09/05 07:59:49;;;;;;;;;;;;;;;;;;5080089;28;19912;-65
2022/09/05 08:02:14;;;;;;;;;;;;;;;;;;5087530;28;19920;-65
2022/09/05 08:04:39;;;;;;;;;;;;;;;;;;5065155;28;19924;-65
2022/09/05 08:07:04;;;;;;;;;;;;;;;;;;5076043;28;19913;-66
2022/09/05 08:09:30;;;;;;;;;;;;;;;;;;5076445;28;19946;-65
2022/09/05 08:11:55;;;;;;;;;;;;;;;;;;5079381;28;19912;-66
2022/09/05 08:14:20;;;;;;;;;;;;;;;;;;5054857;28;20396;-64
2022/09/05 08:16:45;;;;;;;;;;;;;;;;;;5076857;28;19986;-65
2022/09/05 08:19:11;;;;;;;;;;;;;;;;;;5052459;28;19954;-65
2022/09/05 08:21:40;;;;;;;;;;;;;;;;;;5063627;28;19962;-65
2022/09/05 08:24:08;;;;;;;;;;;;;;;;;;5057878;28;19922;-65
2022/09/05 08:26:33;;;;;;;;;;;;;;;;;;5071889;28;19916;-65
2022/09/05 08:28:58;;;;;;;;;;;;;;;;;;5073673;28;19962;-66
2022/09/05 08:31:23;;;;;;;;;;;;;;;;;;5077512;28;19913;-65
2022/09/05 08:33:50;;;;;;;;;;;;;;;;;;5074641;28;20383;-65
2022/09/05 08:36:15;;;;;;;;;;;;;;;;;;5074169;28;19967;-64
2022/09/05 08:38:42;;;;;;;;;;;;;;;;;;5076381;28;19959;-65
2022/09/05 08:41:07;;;;;;;;;;;;;;;;;;5081754;28;19942;-64
2022/09/05 08:43:32;;;;;;;;;;;;;;;;;;5071295;28;19916;-64
2022/09/05 08:45:57;;;;;;;;;;;;;;;;;;5071006;28;19916;-65
2022/09/05 08:48:22;;;;;;;;;;;;;;;;;;5059425;28;19974;-65
2022/09/05 08:50:47;;;;;;;;;;;;;;;;;;5055651;28;19912;-66
2022/09/05 08:53:13;;;;;;;;;;;;;;;;;;5083534;28;19927;-65
2022/09/05 08:55:38;;;;;;;;;;;;;;;;;;5065368;28;19927;-64
2022/09/05 08:58:03;;;;;;;;;;;;;;;;;;5086850;28;19908;-65
2022/09/05 09:00:28;;;;;;;;;;;;;;;;;;5085706;28;19977;-66
2022/09/05 09:02:54;;;;;;;;;;;;;;;;;;5072096;28;19909;-64
2022/09/05 09:05:19;;;;;;;;;;;;;;;;;;5069230;28;19916;-64
2022/09/05 09:07:44;;;;;;;;;;;;;;;;;;5069090;28;19960;-66
2022/09/05 09:10:09;;;;;;;;;;;;;;;;;;5088644;28;19913;-65
2022/09/05 09:12:34;;;;;;;;;;;;;;;;;;5076955;28;20064;-65
2022/09/05 09:14:59;;;;;;;;;;;;;;;;;;5073575;28;19924;-65
2022/09/05 09:17:25;;;;;;;;;;;;;;;;;;5085196;28;20436;-65
2022/09/05 09:19:50;;;;;;;;;;;;;;;;;;5097934;28;20022;-65
2022/09/05 09:22:16;;;;;;;;;;;;;;;;;;5090855;28;19923;-65
2022/09/05 09:24:41;;;;;;;;;;;;;;;;;;5102492;28;20367;-65
2022/09/05 09:27:06;;;;;;;;;;;;;;;;;;5097259;28;19916;-65
2022/09/05 09:29:33;;;;;;;;;;;;;;;;;;5076152;28;20383;-65
2022/09/05 09:31:58;;;;;;;;;;;;;;;;;;5053777;28;20347;-65
2022/09/05 09:34:24;;;;;;;;;;;;;;;;;;5076524;28;20015;-65
2022/09/05 09:36:49;;;;;;;;;;;;;;;;;;5089841;28;19912;-64
2022/09/05 09:39:14;;;;;;;;;;;;;;;;;;5073434;28;19916;-64
2022/09/05 09:41:40;;;;;;;;;;;;;;;;;;5095992;28;19912;-64
2022/09/05 09:44:06;;;;;;;;;;;;;;;;;;5094357;28;19922;-65
2022/09/05 09:46:32;;;;;;;;;;;;;;;;;;5100455;28;19912;-65
2022/09/05 09:48:58;;;;;;;;;;;;;;;;;;5092827;28;19912;-65
2022/09/05 09:51:25;;;;;;;;;;;;;;;;;;5075733;28;20048;-65
2022/09/05 09:53:50;;;;;;;;;;;;;;;;;;5082676;28;19912;-65
2022/09/05 09:56:15;;;;;;;;;;;;;;;;;;5077438;28;20465;-66
2022/09/05 09:58:40;;;;;;;;;;;;;;;;;;5074891;28;20360;-71
2022/09/05 10:01:06;;;;;;;;;;;;;;;;;;5077997;28;19981;-66
2022/09/05 10:03:31;;;;;;;;;;;;;;;;;;5096183;28;19916;-70
2022/09/05 10:05:56;;;;;;;;;;;;;;;;;;5072374;28;19912;-69
2022/09/05 10:08:21;;;;;;;;;;;;;;;;;;5086860;28;19995;-68
2022/09/05 10:10:47;;;;;;;;;;;;;;;;;;5081263;28;20296;-66
2022/09/05 10:13:12;;;;;;;;;;;;;;;;;;5084256;28;19958;-69
2022/09/05 10:15:38;;;;;;;;;;;;;;;;;;5085085;28;20460;-69
2022/09/05 10:18:03;;;;;;;;;;;;;;;;;;5085153;28;20348;-63
2022/09/05 10:20:29;;;;;;;;;;;;;;;;;;5082060;28;19920;-67
2022/09/05 10:22:55;;;;;;;;;;;;;;;;;;5074259;28;20292;-67
2022/09/05 10:25:20;;;;;;;;;;;;;;;;;;5055464;28;19912;-67
2022/09/05 10:27:45;;;;;;;;;;;;;;;;;;5078454;28;19912;-68
2022/09/05 10:30:10;;;;;;;;;;;;;;;;;;5075316;28;19917;-68
2022/09/05 10:32:35;;;;;;;;;;;;;;;;;;5068526;28;20284;-66
2022/09/05 10:35:00;;;;;;;;;;;;;;;;;;5063604;28;19973;-66
2022/09/05 10:37:27;;;;;;;;;;;;;;;;;;5075042;28;20007;-68
2022/09/05 10:39:52;;;;;;;;;;;;;;;;;;5082374;28;19912;-67
2022/09/05 10:42:17;;;;;;;;;;;;;;;;;;5074772;28;19920;-67
2022/09/05 10:44:44;;;;;;;;;;;;;;;;;;5088553;28;20342;-68
2022/09/05 10:47:09;;;;;;;;;;;;;;;;;;5091181;28;20042;-68
2022/09/05 10:49:34;;;;;;;;;;;;;;;;;;5070975;28;19955;-67
2022/09/05 10:51:59;;;;;;;;;;;;;;;;;;5055110;28;20368;-67
2022/09/05 10:54:24;;;;;;;;;;;;;;;;;;5088462;28;19920;-67
2022/09/05 10:56:50;;;;;;;;;;;;;;;;;;5093512;28;19912;-68
2022/09/05 10:59:15;;;;;;;;;;;;;;;;;;5091119;28;19958;-67
2022/09/05 11:01:40;;;;;;;;;;;;;;;;;;5083611;28;19920;-67
2022/09/05 11:04:05;;;;;;;;;;;;;;;;;;5091953;28;19953;-68
2022/09/05 11:06:30;;;;;;;;;;;;;;;;;;5081239;28;19948;-68
2022/09/05 11:08:57;;;;;;;;;;;;;;;;;;5087561;28;20384;-68
2022/09/05 11:11:22;;;;;;;;;;;;;;;;;;5083882;28;19912;-68
2022/09/05 11:13:48;;;;;;;;;;;;;;;;;;5093766;28;19919;-67
2022/09/05 11:16:13;;;;;;;;;;;;;;;;;;5078090;28;19928;-68
2022/09/05 11:18:39;;;;;;;;;;;;;;;;;;5081593;28;19981;-67
2022/09/05 11:21:04;;;;;;;;;;;;;;;;;;5084938;28;19920;-67
2022/09/05 11:23:29;;;;;;;;;;;;;;;;;;5081339;28;19920;-68
2022/09/05 11:25:54;;;;;;;;;;;;;;;;;;5087757;28;19931;-68
2022/09/05 11:28:19;;;;;;;;;;;;;;;;;;5083006;28;19908;-68
2022/09/05 11:30:44;;;;;;;;;;;;;;;;;;5070599;28;19912;-67
2022/09/05 11:33:10;;;;;;;;;;;;;;;;;;5093028;28;19913;-67
2022/09/05 11:35:35;;;;;;;;;;;;;;;;;;5081525;28;19920;-67
2022/09/05 11:38:00;;;;;;;;;;;;;;;;;;5055098;28;20386;-67
2022/09/05 11:40:25;;;;;;;;;;;;;;;;;;5072334;28;20269;-67
2022/09/05 11:42:50;;;;;;;;;;;;;;;;;;5054763;28;20373;-67
2022/09/05 11:45:15;;;;;;;;;;;;;;;;;;5069485;28;20427;-67
2022/09/05 11:47:40;;;;;;;;;;;;;;;;;;5065945;28;19912;-66
2022/09/05 11:50:06;;;;;;;;;;;;;;;;;;5089292;28;19912;-66
2022/09/05 11:52:31;;;;;;;;;;;;;;;;;;5074043;28;19912;-66
2022/09/05 11:54:56;;;;;;;;;;;;;;;;;;5085694;28;19916;-67
2022/09/05 11:57:22;;;;;;;;;;;;;;;;;;5075584;28;19943;-67
2022/09/05 11:59:47;;;;;;;;;;;;;;;;;;5073361;28;19927;-67
2022/09/05 12:02:12;;;;;;;;;;;;;;;;;;5061854;28;19912;-67
2022/09/05 12:04:38;;;;;;;;;;;;;;;;;;5082817;28;19916;-67
2022/09/05 12:07:04;;;;;;;;;;;;;;;;;;5070859;28;19912;-67
2022/09/05 12:09:30;;;;;;;;;;;;;;;;;;5072114;28;19926;-67
2022/09/05 12:11:55;;;;;;;;;;;;;;;;;;5076648;28;19992;-67
2022/09/05 12:14:20;;;;;;;;;;;;;;;;;;5063428;28;20315;-68
2022/09/05 12:16:45;;;;;;;;;;;;;;;;;;5095891;28;20034;-68
2022/09/05 12:19:11;;;;;;;;;;;;;;;;;;5091954;28;19912;-68
2022/09/05 12:21:36;;;;;;;;;;;;;;;;;;5059972;28;19920;-67
2022/09/05 12:24:01;;;;;;;;;;;;;;;;;;5076680;28;19916;-69
2022/09/05 12:26:26;;;;;;;;;;;;;;;;;;5059113;28;19912;-70
2022/09/05 12:28:51;;;;;;;;;;;;;;;;;;5077349;28;19966;-72
2022/09/05 12:31:16;;;;;;;;;;;;;;;;;;5088149;28;20008;-71
2022/09/05 12:33:42;;;;;;;;;;;;;;;;;;5083553;28;20015;-72
2022/09/05 12:36:07;;;;;;;;;;;;;;;;;;5084035;28;19920;-71
2022/09/05 12:38:32;;;;;;;;;;;;;;;;;;5065331;28;19913;-71
2022/09/05 12:40:57;;;;;;;;;;;;;;;;;;5078496;28;19963;-70
2022/09/05 12:43:22;;;;;;;;;;;;;;;;;;5090349;28;19920;-69
2022/09/05 12:45:48;;;;;;;;;;;;;;;;;;5052433;28;20050;-68
2022/09/05 12:48:13;;;;;;;;;;;;;;;;;;5065611;28;20485;-68
2022/09/05 12:50:39;;;;;;;;;;;;;;;;;;5074443;28;19912;-76
2022/09/05 12:53:05;;;;;;;;;;;;;;;;;;5082156;28;19962;-73
2022/09/05 12:55:31;;;;;;;;;;;;;;;;;;5079923;28;19920;-74
2022/09/05 12:57:56;;;;;;;;;;;;;;;;;;5063001;28;19912;-69
2022/09/05 13:00:22;;;;;;;;;;;;;;;;;;5079417;28;20360;-72
2022/09/05 13:02:47;;;;;;;;;;;;;;;;;;5055258;28;19962;-69
2022/09/05 13:05:12;;;;;;;;;;;;;;;;;;5066736;28;19916;-69
2022/09/05 13:07:37;;;;;;;;;;;;;;;;;;5092368;28;19908;-69
2022/09/05 13:10:02;;;;;;;;;;;;;;;;;;5088963;28;19970;-73
2022/09/05 13:12:28;;;;;;;;;;;;;;;;;;5096402;28;19908;-74
2022/09/05 13:14:56;;;;;;;;;;;;;;;;;;5069227;28;19923;-68
2022/09/05 13:17:21;;;;;;;;;;;;;;;;;;5089844;28;19969;-68
2022/09/05 13:19:50;;;;;;;;;;;;;;;;;;5091335;28;19916;-68
2022/09/05 13:22:15;;;;;;;;;;;;;;;;;;5076298;28;20323;-73
2022/09/05 13:24:40;;;;;;;;;;;;;;;;;;5083532;28;19916;-77
2022/09/05 13:27:06;;;;;;;;;;;;;;;;;;5064158;28;19912;-72
2022/09/05 13:29:31;;;;;;;;;;;;;;;;;;5095962;28;19912;-75
2022/09/05 13:31:57;;;;;;;;;;;;;;;;;;5087465;28;19916;-73
2022/09/05 13:34:22;;;;;;;;;;;;;;;;;;5078628;28;19920;-72
2022/09/05 13:36:49;;;;;;;;;;;;;;;;;;5078014;28;19913;-71
2022/09/05 13:39:15;;;;;;;;;;;;;;;;;;5061018;28;19912;-73
2022/09/05 13:41:40;;;;;;;;;;;;;;;;;;5074629;28;19958;-73
2022/09/05 13:44:06;;;;;;;;;;;;;;;;;;5085298;28;19916;-69
2022/09/05 13:46:31;;;;;;;;;;;;;;;;;;5081888;28;19924;-68
2022/09/05 13:48:57;;;;;;;;;;;;;;;;;;5088198;28;19916;-68
2022/09/05 13:51:26;;;;;;;;;;;;;;;;;;5096378;28;19954;-65
2022/09/05 13:53:52;;;;;;;;;;;;;;;;;;5062344;28;20368;-70
2022/09/05 13:56:22;;;;;;;;;;;;;;;;;;5093261;28;19970;-69
2022/09/05 13:58:48;;;;;;;;;;;;;;;;;;5080709;28;20003;-70
2022/09/05 14:01:13;;;;;;;;;;;;;;;;;;5089918;28;19954;-70
2022/09/05 14:03:39;;;;;;;;;;;;;;;;;;5085479;28;20003;-68
2022/09/05 14:06:04;;;;;;;;;;;;;;;;;;5080689;28;20006;-71
2022/09/05 14:08:33;;;;;;;;;;;;;;;;;;5067028;28;21199;-69
2022/09/05 14:10:59;;;;;;;;;;;;;;;;;;5088234;28;20288;-72
2022/09/05 14:13:24;;;;;;;;;;;;;;;;;;5076077;28;19912;-74
2022/09/05 14:15:49;;;;;;;;;;;;;;;;;;5061760;28;19935;-73
2022/09/05 14:18:14;;;;;;;;;;;;;;;;;;5090702;28;19912;-67
2022/09/05 14:23:23;;;;;;;;;;;;;;;;;;5075587;28;20002;-68
2022/09/05 14:25:48;;;;;;;;;;;;;;;;;;5091239;28;20318;-69
2022/09/05 14:28:14;;;;;;;;;;;;;;;;;;5078800;28;20148;-67
2022/09/05 14:30:39;;;;;;;;;;;;;;;;;;5077774;28;19912;-67
2022/09/05 14:33:04;;;;;;;;;;;;;;;;;;5089402;28;19912;-67
2022/09/05 14:35:30;;;;;;;;;;;;;;;;;;5073042;28;19916;-67
2022/09/05 14:37:55;;;;;;;;;;;;;;;;;;5061808;28;19918;-67
2022/09/05 14:40:20;;;;;;;;;;;;;;;;;;5085204;28;19912;-67
2022/09/05 14:42:45;;;;;;;;;;;;;;;;;;5089162;28;20018;-67
2022/09/05 14:45:10;;;;;;;;;;;;;;;;;;5075259;28;20030;-67
2022/09/05 14:47:36;;;;;;;;;;;;;;;;;;5083925;28;19912;-67
2022/09/05 14:50:02;;;;;;;;;;;;;;;;;;5074496;28;19962;-67
2022/09/05 14:52:27;;;;;;;;;;;;;;;;;;5080711;28;19963;-67
2022/09/05 14:54:53;;;;;;;;;;;;;;;;;;5075565;28;19944;-67
2022/09/05 14:57:19;;;;;;;;;;;;;;;;;;5085200;28;19913;-67
2022/09/05 14:59:44;;;;;;;;;;;;;;;;;;5086036;28;20296;-66
2022/09/05 15:02:09;;;;;;;;;;;;;;;;;;5071546;28;19916;-73
2022/09/05 15:04:34;;;;;;;;;;;;;;;;;;5073482;28;19999;-67
2022/09/05 15:06:59;;;;;;;;;;;;;;;;;;5094290;28;20368;-67
2022/09/05 15:09:24;;;;;;;;;;;;;;;;;;5090606;28;19919;-67
2022/09/05 15:11:49;;;;;;;;;;;;;;;;;;5083893;28;20380;-67
2022/09/05 15:14:15;;;;;;;;;;;;;;;;;;5064582;28;19912;-67
2022/09/05 15:16:44;;;;;;;;;;;;;;;;;;5055413;28;19921;-68
2022/09/05 15:19:09;;;;;;;;;;;;;;;;;;5060615;28;19974;-68
2022/09/05 15:21:36;;;;;;;;;;;;;;;;;;5064410;28;19994;-68
2022/09/05 15:24:02;;;;;;;;;;;;;;;;;;5045300;28;19916;-68
2022/09/05 15:26:29;;;;;;;;;;;;;;;;;;5057587;28;19966;-68
2022/09/05 15:28:55;;;;;;;;;;;;;;;;;;5057242;28;20004;-67
2022/09/05 15:31:20;;;;;;;;;;;;;;;;;;5035972;28;20035;-67
2022/09/05 15:33:45;;;;;;;;;;;;;;;;;;5062977;28;20390;-67
2022/09/05 15:36:13;;;;;;;;;;;;;;;;;;5044496;28;20373;-68
2022/09/05 15:38:38;;;;;;;;;;;;;;;;;;5056328;28;19921;-67
2022/09/05 15:41:06;;;;;;;;;;;;;;;;;;5053699;28;19935;-67
2022/09/05 15:43:31;;;;;;;;;;;;;;;;;;5044931;28;19916;-67
2022/09/05 15:45:56;;;;;;;;;;;;;;;;;;5072695;28;20346;-67
2022/09/05 15:48:21;;;;;;;;;;;;;;;;;;5069941;28;20292;-68
2022/09/05 15:50:49;;;;;;;;;;;;;;;;;;5062441;28;20284;-68
2022/09/05 15:53:14;;;;;;;;;;;;;;;;;;5051951;28;19919;-67
2022/09/05 15:55:40;;;;;;;;;;;;;;;;;;5057746;28;19913;-68
2022/09/05 15:58:05;;;;;;;;;;;;;;;;;;5041201;28;19908;-67
2022/09/05 16:00:30;;;;;;;;;;;;;;;;;;5060762;28;20007;-67
2022/09/05 16:02:55;;;;;;;;;;;;;;;;;;5050202;28;19908;-67
2022/09/05 16:05:20;;;;;;;;;;;;;;;;;;5060406;28;19924;-67
2022/09/05 16:07:46;;;;;;;;;;;;;;;;;;5058093;28;19919;-68
2022/09/05 16:10:11;;;;;;;;;;;;;;;;;;5069971;28;19932;-67
2022/09/05 16:12:36;;;;;;;;;;;;;;;;;;5064082;28;19960;-67
2022/09/05 16:15:01;;;;;;;;;;;;;;;;;;5073276;28;19923;-67
2022/09/05 16:17:26;;;;;;;;;;;;;;;;;;5076314;28;19917;-68
2022/09/05 16:19:52;;;;;;;;;;;;;;;;;;5071747;28;20012;-68
2022/09/05 16:22:17;;;;;;;;;;;;;;;;;;5064777;28;19941;-68
2022/09/05 16:24:42;;;;;;;;;;;;;;;;;;5080533;28;19920;-68
2022/09/05 16:27:07;;;;;;;;;;;;;;;;;;5083654;28;20514;-68
2022/09/05 16:29:32;;;;;;;;;;;;;;;;;;5081432;28;20404;-68
2022/09/05 16:31:57;;;;;;;;;;;;;;;;;;5089910;28;20378;-68
2022/09/05 16:34:23;;;;;;;;;;;;;;;;;;5091327;28;20288;-68